sensor_id;sensor_type;location;lat;lon;timestamp;P1;durP1;ratioP1;P2;durP2;ratioP2
66751;SDS011;53663;42.676;23.238;2023-05-27T00:00:30;8.23;;;5.22;;
66751;SDS011;53663;42.676;23.238;2023-05-27T00:02:58;7.60;;;5.40;;
66751;SDS011;53663;42.676;23.238;2023-05-27T00:05:26;12.45;;;5.57;;
66751;SDS011;53663;42.676;23.238;2023-05-27T00:07:51;8.65;;;6.00;;
66751;SDS011;53663;42.676;23.238;2023-05-27T00:10:17;8.65;;;6.22;;
66751;SDS011;53663;42.676;23.238;2023-05-27T00:12:42;13.38;;;7.95;;
66751;SDS011;53663;42.676;23.238;2023-05-27T00:15:08;21.92;;;8.85;;
66751;SDS011;53663;42.676;23.238;2023-05-27T00:17:34;13.30;;;8.60;;
66751;SDS011;53663;42.676;23.238;2023-05-27T00:20:00;13.85;;;8.93;;
66751;SDS011;53663;42.676;23.238;2023-05-27T00:22:32;15.13;;;9.75;;
66751;SDS011;53663;42.676;23.238;2023-05-27T00:24:57;19.63;;;9.93;;
66751;SDS011;53663;42.676;23.238;2023-05-27T00:27:23;14.75;;;10.65;;
66751;SDS011;53663;42.676;23.238;2023-05-27T00:29:48;14.88;;;9.88;;
66751;SDS011;53663;42.676;23.238;2023-05-27T00:32:14;15.20;;;9.82;;
66751;SDS011;53663;42.676;23.238;2023-05-27T00:34:39;18.92;;;10.68;;
66751;SDS011;53663;42.676;23.238;2023-05-27T00:37:05;13.30;;;9.85;;
66751;SDS011;53663;42.676;23.238;2023-05-27T00:39:31;15.68;;;9.48;;
66751;SDS011;53663;42.676;23.238;2023-05-27T00:41:57;9.77;;;8.00;;
66751;SDS011;53663;42.676;23.238;2023-05-27T00:44:23;12.77;;;8.05;;
66751;SDS011;53663;42.676;23.238;2023-05-27T00:46:48;10.98;;;4.70;;
66751;SDS011;53663;42.676;23.238;2023-05-27T00:49:14;7.80;;;4.53;;
66751;SDS011;53663;42.676;23.238;2023-05-27T00:51:40;8.50;;;5.20;;
66751;SDS011;53663;42.676;23.238;2023-05-27T00:54:09;8.02;;;5.75;;
66751;SDS011;53663;42.676;23.238;2023-05-27T00:56:36;8.13;;;5.25;;
66751;SDS011;53663;42.676;23.238;2023-05-27T00:59:01;6.50;;;4.93;;
66751;SDS011;53663;42.676;23.238;2023-05-27T01:01:27;7.75;;;4.25;;
66751;SDS011;53663;42.676;23.238;2023-05-27T01:03:53;6.45;;;4.57;;
66751;SDS011;53663;42.676;23.238;2023-05-27T01:06:24;6.43;;;4.43;;
66751;SDS011;53663;42.676;23.238;2023-05-27T01:09:04;12.02;;;4.32;;
66751;SDS011;53663;42.676;23.238;2023-05-27T01:14:29;6.18;;;4.05;;
66751;SDS011;53663;42.676;23.238;2023-05-27T01:16:58;5.35;;;4.05;;
66751;SDS011;53663;42.676;23.238;2023-05-27T01:19:32;5.95;;;3.40;;
66751;SDS011;53663;42.676;23.238;2023-05-27T01:22:00;4.60;;;3.50;;
66751;SDS011;53663;42.676;23.238;2023-05-27T01:24:27;5.25;;;3.47;;
66751;SDS011;53663;42.676;23.238;2023-05-27T01:26:52;4.32;;;2.92;;
66751;SDS011;53663;42.676;23.238;2023-05-27T01:29:18;5.55;;;3.20;;
66751;SDS011;53663;42.676;23.238;2023-05-27T01:31:54;3.13;;;2.78;;
66751;SDS011;53663;42.676;23.238;2023-05-27T01:34:33;5.00;;;2.90;;
66751;SDS011;53663;42.676;23.238;2023-05-27T01:37:05;3.65;;;2.53;;
66751;SDS011;53663;42.676;23.238;2023-05-27T01:39:33;6.90;;;2.90;;
66751;SDS011;53663;42.676;23.238;2023-05-27T01:42:00;2.42;;;2.03;;
66751;SDS011;53663;42.676;23.238;2023-05-27T01:44:28;5.93;;;2.78;;
66751;SDS011;53663;42.676;23.238;2023-05-27T01:46:59;5.72;;;2.40;;
66751;SDS011;53663;42.676;23.238;2023-05-27T01:49:25;5.60;;;2.33;;
66751;SDS011;53663;42.676;23.238;2023-05-27T01:51:51;2.42;;;2.20;;
66751;SDS011;53663;42.676;23.238;2023-05-27T01:54:17;5.63;;;2.60;;
66751;SDS011;53663;42.676;23.238;2023-05-27T01:56:42;3.97;;;2.70;;
66751;SDS011;53663;42.676;23.238;2023-05-27T01:59:08;3.25;;;2.28;;
66751;SDS011;53663;42.676;23.238;2023-05-27T02:01:34;4.03;;;2.63;;
66751;SDS011;53663;42.676;23.238;2023-05-27T02:04:00;4.20;;;2.55;;
66751;SDS011;53663;42.676;23.238;2023-05-27T02:06:26;6.00;;;2.95;;
66751;SDS011;53663;42.676;23.238;2023-05-27T02:08:52;4.13;;;2.95;;
66751;SDS011;53663;42.676;23.238;2023-05-27T02:11:17;5.45;;;3.00;;
66751;SDS011;53663;42.676;23.238;2023-05-27T02:13:43;4.35;;;2.90;;
66751;SDS011;53663;42.676;23.238;2023-05-27T02:16:08;4.85;;;3.15;;
66751;SDS011;53663;42.676;23.238;2023-05-27T02:18:34;5.35;;;2.65;;
66751;SDS011;53663;42.676;23.238;2023-05-27T02:21:00;3.42;;;2.60;;
66751;SDS011;53663;42.676;23.238;2023-05-27T02:23:34;3.38;;;2.50;;
66751;SDS011;53663;42.676;23.238;2023-05-27T02:26:01;5.70;;;3.00;;
66751;SDS011;53663;42.676;23.238;2023-05-27T02:28:27;7.03;;;2.60;;
66751;SDS011;53663;42.676;23.238;2023-05-27T02:30:54;4.93;;;2.90;;
66751;SDS011;53663;42.676;23.238;2023-05-27T02:33:20;6.10;;;3.55;;
66751;SDS011;53663;42.676;23.238;2023-05-27T02:35:45;4.15;;;2.63;;
66751;SDS011;53663;42.676;23.238;2023-05-27T02:38:11;2.58;;;2.38;;
66751;SDS011;53663;42.676;23.238;2023-05-27T02:40:37;7.68;;;2.60;;
66751;SDS011;53663;42.676;23.238;2023-05-27T02:43:02;2.80;;;2.50;;
66751;SDS011;53663;42.676;23.238;2023-05-27T02:45:28;6.75;;;2.70;;
66751;SDS011;53663;42.676;23.238;2023-05-27T02:47:54;3.65;;;2.70;;
66751;SDS011;53663;42.676;23.238;2023-05-27T02:50:20;3.60;;;2.88;;
66751;SDS011;53663;42.676;23.238;2023-05-27T02:52:46;3.60;;;2.92;;
66751;SDS011;53663;42.676;23.238;2023-05-27T02:55:12;5.70;;;3.20;;
66751;SDS011;53663;42.676;23.238;2023-05-27T02:57:37;5.03;;;3.45;;
66751;SDS011;53663;42.676;23.238;2023-05-27T03:00:03;7.18;;;4.97;;
66751;SDS011;53663;42.676;23.238;2023-05-27T03:02:29;6.72;;;3.10;;
66751;SDS011;53663;42.676;23.238;2023-05-27T03:04:55;4.97;;;3.00;;
66751;SDS011;53663;42.676;23.238;2023-05-27T03:07:22;8.48;;;2.83;;
66751;SDS011;53663;42.676;23.238;2023-05-27T03:09:47;3.75;;;2.75;;
66751;SDS011;53663;42.676;23.238;2023-05-27T03:12:13;4.45;;;2.75;;
66751;SDS011;53663;42.676;23.238;2023-05-27T03:14:38;5.50;;;2.92;;
66751;SDS011;53663;42.676;23.238;2023-05-27T03:17:04;5.03;;;3.22;;
66751;SDS011;53663;42.676;23.238;2023-05-27T03:19:30;10.27;;;3.20;;
66751;SDS011;53663;42.676;23.238;2023-05-27T03:21:56;5.80;;;3.30;;
66751;SDS011;53663;42.676;23.238;2023-05-27T03:24:25;5.55;;;3.47;;
66751;SDS011;53663;42.676;23.238;2023-05-27T03:26:51;4.53;;;2.95;;
66751;SDS011;53663;42.676;23.238;2023-05-27T03:29:17;5.38;;;3.42;;
66751;SDS011;53663;42.676;23.238;2023-05-27T03:31:43;5.47;;;3.15;;
66751;SDS011;53663;42.676;23.238;2023-05-27T03:34:12;5.15;;;3.47;;
66751;SDS011;53663;42.676;23.238;2023-05-27T03:36:39;7.72;;;3.70;;
66751;SDS011;53663;42.676;23.238;2023-05-27T03:39:05;7.22;;;3.78;;
66751;SDS011;53663;42.676;23.238;2023-05-27T03:41:34;6.85;;;3.33;;
66751;SDS011;53663;42.676;23.238;2023-05-27T03:44:00;5.53;;;3.20;;
66751;SDS011;53663;42.676;23.238;2023-05-27T03:46:26;7.20;;;3.28;;
66751;SDS011;53663;42.676;23.238;2023-05-27T03:48:51;4.05;;;2.97;;
66751;SDS011;53663;42.676;23.238;2023-05-27T03:51:17;4.35;;;2.78;;
66751;SDS011;53663;42.676;23.238;2023-05-27T03:53:43;4.95;;;2.85;;
66751;SDS011;53663;42.676;23.238;2023-05-27T03:56:09;5.35;;;3.30;;
66751;SDS011;53663;42.676;23.238;2023-05-27T03:58:34;6.07;;;3.22;;
66751;SDS011;53663;42.676;23.238;2023-05-27T04:01:00;8.07;;;2.90;;
66751;SDS011;53663;42.676;23.238;2023-05-27T04:03:27;4.78;;;2.90;;
66751;SDS011;53663;42.676;23.238;2023-05-27T04:05:53;3.65;;;2.88;;
66751;SDS011;53663;42.676;23.238;2023-05-27T04:08:18;2.90;;;2.60;;
66751;SDS011;53663;42.676;23.238;2023-05-27T04:10:44;6.85;;;2.65;;
66751;SDS011;53663;42.676;23.238;2023-05-27T04:13:09;3.45;;;2.55;;
66751;SDS011;53663;42.676;23.238;2023-05-27T04:15:35;4.63;;;2.95;;
66751;SDS011;53663;42.676;23.238;2023-05-27T04:18:00;3.15;;;2.13;;
66751;SDS011;53663;42.676;23.238;2023-05-27T04:20:33;5.95;;;2.80;;
66751;SDS011;53663;42.676;23.238;2023-05-27T04:23:01;2.38;;;2.17;;
66751;SDS011;53663;42.676;23.238;2023-05-27T04:25:26;3.88;;;2.60;;
66751;SDS011;53663;42.676;23.238;2023-05-27T04:28:00;4.10;;;2.60;;
66751;SDS011;53663;42.676;23.238;2023-05-27T04:30:32;3.17;;;2.47;;
66751;SDS011;53663;42.676;23.238;2023-05-27T04:32:59;2.83;;;2.50;;
66751;SDS011;53663;42.676;23.238;2023-05-27T04:35:25;3.63;;;2.30;;
66751;SDS011;53663;42.676;23.238;2023-05-27T04:37:52;2.72;;;2.40;;
66751;SDS011;53663;42.676;23.238;2023-05-27T04:40:19;3.30;;;2.40;;
66751;SDS011;53663;42.676;23.238;2023-05-27T04:43:13;3.55;;;2.15;;
66751;SDS011;53663;42.676;23.238;2023-05-27T04:45:40;2.47;;;2.28;;
66751;SDS011;53663;42.676;23.238;2023-05-27T04:48:07;2.42;;;1.90;;
66751;SDS011;53663;42.676;23.238;2023-05-27T04:50:33;2.80;;;2.00;;
66751;SDS011;53663;42.676;23.238;2023-05-27T04:53:00;2.47;;;2.20;;
66751;SDS011;53663;42.676;23.238;2023-05-27T04:55:26;2.22;;;1.80;;
66751;SDS011;53663;42.676;23.238;2023-05-27T04:57:51;3.03;;;2.05;;
66751;SDS011;53663;42.676;23.238;2023-05-27T05:00:17;4.88;;;1.90;;
66751;SDS011;53663;42.676;23.238;2023-05-27T05:02:47;2.35;;;2.10;;
66751;SDS011;53663;42.676;23.238;2023-05-27T05:05:14;3.15;;;1.88;;
66751;SDS011;53663;42.676;23.238;2023-05-27T05:07:40;3.40;;;2.05;;
66751;SDS011;53663;42.676;23.238;2023-05-27T05:10:07;3.35;;;2.17;;
66751;SDS011;53663;42.676;23.238;2023-05-27T05:12:38;2.80;;;2.10;;
66751;SDS011;53663;42.676;23.238;2023-05-27T05:15:05;2.67;;;2.20;;
66751;SDS011;53663;42.676;23.238;2023-05-27T05:17:32;3.17;;;2.08;;
66751;SDS011;53663;42.676;23.238;2023-05-27T05:19:57;2.80;;;2.10;;
66751;SDS011;53663;42.676;23.238;2023-05-27T05:22:24;2.20;;;1.90;;
66751;SDS011;53663;42.676;23.238;2023-05-27T05:24:52;4.22;;;2.30;;
66751;SDS011;53663;42.676;23.238;2023-05-27T05:27:26;4.75;;;2.20;;
66751;SDS011;53663;42.676;23.238;2023-05-27T05:29:52;4.07;;;2.30;;
66751;SDS011;53663;42.676;23.238;2023-05-27T05:32:18;3.42;;;2.33;;
66751;SDS011;53663;42.676;23.238;2023-05-27T05:34:43;7.13;;;2.80;;
66751;SDS011;53663;42.676;23.238;2023-05-27T05:37:10;5.30;;;3.28;;
66751;SDS011;53663;42.676;23.238;2023-05-27T05:39:40;7.07;;;4.00;;
66751;SDS011;53663;42.676;23.238;2023-05-27T05:42:07;3.60;;;2.95;;
66751;SDS011;53663;42.676;23.238;2023-05-27T05:44:32;9.07;;;3.90;;
66751;SDS011;53663;42.676;23.238;2023-05-27T05:46:59;6.35;;;3.85;;
66751;SDS011;53663;42.676;23.238;2023-05-27T05:49:25;5.03;;;3.38;;
66751;SDS011;53663;42.676;23.238;2023-05-27T05:51:51;10.55;;;3.85;;
66751;SDS011;53663;42.676;23.238;2023-05-27T05:54:17;5.38;;;3.60;;
66751;SDS011;53663;42.676;23.238;2023-05-27T05:56:46;6.60;;;4.17;;
66751;SDS011;53663;42.676;23.238;2023-05-27T05:59:12;5.13;;;3.75;;
66751;SDS011;53663;42.676;23.238;2023-05-27T06:01:38;5.30;;;3.70;;
66751;SDS011;53663;42.676;23.238;2023-05-27T06:04:03;5.40;;;3.80;;
66751;SDS011;53663;42.676;23.238;2023-05-27T06:06:35;5.60;;;3.63;;
66751;SDS011;53663;42.676;23.238;2023-05-27T06:09:22;12.32;;;4.38;;
66751;SDS011;53663;42.676;23.238;2023-05-27T06:11:48;4.55;;;3.42;;
66751;SDS011;53663;42.676;23.238;2023-05-27T06:14:14;11.02;;;3.58;;
66751;SDS011;53663;42.676;23.238;2023-05-27T06:16:40;7.18;;;3.55;;
66751;SDS011;53663;42.676;23.238;2023-05-27T06:19:07;5.55;;;3.50;;
66751;SDS011;53663;42.676;23.238;2023-05-27T06:21:32;9.63;;;4.35;;
66751;SDS011;53663;42.676;23.238;2023-05-27T06:24:31;6.40;;;3.88;;
66751;SDS011;53663;42.676;23.238;2023-05-27T06:27:07;6.78;;;3.85;;
66751;SDS011;53663;42.676;23.238;2023-05-27T06:29:33;6.25;;;4.25;;
66751;SDS011;53663;42.676;23.238;2023-05-27T06:31:59;9.70;;;4.43;;
66751;SDS011;53663;42.676;23.238;2023-05-27T06:34:25;9.57;;;4.47;;
66751;SDS011;53663;42.676;23.238;2023-05-27T06:36:51;5.30;;;4.05;;
66751;SDS011;53663;42.676;23.238;2023-05-27T06:39:17;8.15;;;3.88;;
66751;SDS011;53663;42.676;23.238;2023-05-27T06:41:43;7.53;;;4.72;;
66751;SDS011;53663;42.676;23.238;2023-05-27T06:44:27;10.02;;;5.65;;
66751;SDS011;53663;42.676;23.238;2023-05-27T06:46:58;6.63;;;4.55;;
66751;SDS011;53663;42.676;23.238;2023-05-27T06:49:28;7.68;;;5.00;;
66751;SDS011;53663;42.676;23.238;2023-05-27T06:51:55;9.68;;;4.65;;
66751;SDS011;53663;42.676;23.238;2023-05-27T06:54:21;8.38;;;4.70;;
66751;SDS011;53663;42.676;23.238;2023-05-27T06:56:47;9.88;;;5.22;;
66751;SDS011;53663;42.676;23.238;2023-05-27T06:59:31;7.10;;;5.18;;
66751;SDS011;53663;42.676;23.238;2023-05-27T07:01:57;9.70;;;5.55;;
66751;SDS011;53663;42.676;23.238;2023-05-27T07:04:23;9.43;;;5.50;;
66751;SDS011;53663;42.676;23.238;2023-05-27T07:06:55;12.68;;;6.15;;
66751;SDS011;53663;42.676;23.238;2023-05-27T07:09:20;13.40;;;5.60;;
66751;SDS011;53663;42.676;23.238;2023-05-27T07:11:46;7.55;;;5.28;;
66751;SDS011;53663;42.676;23.238;2023-05-27T07:14:32;8.30;;;5.50;;
66751;SDS011;53663;42.676;23.238;2023-05-27T07:16:57;23.10;;;10.32;;
66751;SDS011;53663;42.676;23.238;2023-05-27T07:19:23;14.45;;;8.20;;
66751;SDS011;53663;42.676;23.238;2023-05-27T07:21:53;28.02;;;13.55;;
66751;SDS011;53663;42.676;23.238;2023-05-27T07:24:21;107.93;;;43.58;;
66751;SDS011;53663;42.676;23.238;2023-05-27T07:26:47;133.80;;;54.30;;
66751;SDS011;53663;42.676;23.238;2023-05-27T07:29:13;99.03;;;41.28;;
66751;SDS011;53663;42.676;23.238;2023-05-27T07:32:01;21.23;;;8.82;;
66751;SDS011;53663;42.676;23.238;2023-05-27T07:34:31;12.33;;;6.50;;
66751;SDS011;53663;42.676;23.238;2023-05-27T07:36:57;11.93;;;4.95;;
66751;SDS011;53663;42.676;23.238;2023-05-27T07:39:23;11.07;;;4.38;;
66751;SDS011;53663;42.676;23.238;2023-05-27T07:41:49;10.73;;;5.30;;
66751;SDS011;53663;42.676;23.238;2023-05-27T07:44:14;13.18;;;6.10;;
66751;SDS011;53663;42.676;23.238;2023-05-27T07:46:40;5.30;;;3.30;;
66751;SDS011;53663;42.676;23.238;2023-05-27T07:49:06;6.57;;;4.20;;
66751;SDS011;53663;42.676;23.238;2023-05-27T07:54:02;6.70;;;3.78;;
66751;SDS011;53663;42.676;23.238;2023-05-27T07:56:28;13.65;;;4.05;;
66751;SDS011;53663;42.676;23.238;2023-05-27T07:58:54;16.85;;;6.13;;
66751;SDS011;53663;42.676;23.238;2023-05-27T08:01:21;10.88;;;4.32;;
66751;SDS011;53663;42.676;23.238;2023-05-27T08:03:51;7.05;;;4.15;;
66751;SDS011;53663;42.676;23.238;2023-05-27T08:06:16;8.02;;;4.15;;
66751;SDS011;53663;42.676;23.238;2023-05-27T08:08:54;6.13;;;3.85;;
66751;SDS011;53663;42.676;23.238;2023-05-27T08:11:39;6.07;;;3.78;;
66751;SDS011;53663;42.676;23.238;2023-05-27T08:14:25;5.97;;;4.03;;
66751;SDS011;53663;42.676;23.238;2023-05-27T08:17:12;10.75;;;3.40;;
66751;SDS011;53663;42.676;23.238;2023-05-27T08:19:47;9.02;;;3.63;;
66751;SDS011;53663;42.676;23.238;2023-05-27T08:22:31;9.65;;;3.95;;
66751;SDS011;53663;42.676;23.238;2023-05-27T08:25:15;4.85;;;3.50;;
66751;SDS011;53663;42.676;23.238;2023-05-27T08:28:00;8.40;;;4.43;;
66751;SDS011;53663;42.676;23.238;2023-05-27T08:30:36;11.43;;;4.80;;
66751;SDS011;53663;42.676;23.238;2023-05-27T08:33:07;9.25;;;4.40;;
66751;SDS011;53663;42.676;23.238;2023-05-27T08:35:33;7.20;;;4.15;;
66751;SDS011;53663;42.676;23.238;2023-05-27T08:37:58;11.10;;;5.97;;
66751;SDS011;53663;42.676;23.238;2023-05-27T08:40:28;11.80;;;6.10;;
66751;SDS011;53663;42.676;23.238;2023-05-27T08:42:54;9.00;;;3.65;;
66751;SDS011;53663;42.676;23.238;2023-05-27T08:45:21;14.27;;;4.43;;
66751;SDS011;53663;42.676;23.238;2023-05-27T08:47:47;6.90;;;3.03;;
66751;SDS011;53663;42.676;23.238;2023-05-27T08:50:21;9.27;;;3.72;;
66751;SDS011;53663;42.676;23.238;2023-05-27T08:52:47;6.25;;;3.58;;
66751;SDS011;53663;42.676;23.238;2023-05-27T08:55:19;8.40;;;3.70;;
66751;SDS011;53663;42.676;23.238;2023-05-27T08:57:54;9.18;;;3.80;;
66751;SDS011;53663;42.676;23.238;2023-05-27T09:00:21;6.03;;;3.47;;
66751;SDS011;53663;42.676;23.238;2023-05-27T09:02:48;10.25;;;3.40;;
66751;SDS011;53663;42.676;23.238;2023-05-27T09:05:15;8.45;;;3.45;;
66751;SDS011;53663;42.676;23.238;2023-05-27T09:07:41;8.80;;;3.70;;
66751;SDS011;53663;42.676;23.238;2023-05-27T09:10:07;9.23;;;3.25;;
66751;SDS011;53663;42.676;23.238;2023-05-27T09:12:34;8.05;;;3.88;;
66751;SDS011;53663;42.676;23.238;2023-05-27T09:15:00;10.63;;;4.15;;
66751;SDS011;53663;42.676;23.238;2023-05-27T09:17:26;11.02;;;5.07;;
66751;SDS011;53663;42.676;23.238;2023-05-27T09:19:52;8.27;;;4.25;;
66751;SDS011;53663;42.676;23.238;2023-05-27T09:22:36;5.05;;;3.67;;
66751;SDS011;53663;42.676;23.238;2023-05-27T09:25:02;4.95;;;3.22;;
66751;SDS011;53663;42.676;23.238;2023-05-27T09:27:29;6.88;;;4.18;;
66751;SDS011;53663;42.676;23.238;2023-05-27T09:29:57;9.18;;;3.45;;
66751;SDS011;53663;42.676;23.238;2023-05-27T09:32:31;6.20;;;3.70;;
66751;SDS011;53663;42.676;23.238;2023-05-27T09:34:57;13.93;;;3.85;;
66751;SDS011;53663;42.676;23.238;2023-05-27T09:37:33;7.07;;;3.92;;
66751;SDS011;53663;42.676;23.238;2023-05-27T09:40:00;8.45;;;3.85;;
66751;SDS011;53663;42.676;23.238;2023-05-27T09:42:45;13.90;;;6.53;;
66751;SDS011;53663;42.676;23.238;2023-05-27T09:45:20;15.23;;;5.75;;
66751;SDS011;53663;42.676;23.238;2023-05-27T09:47:52;9.07;;;3.90;;
66751;SDS011;53663;42.676;23.238;2023-05-27T09:50:20;5.93;;;3.67;;
66751;SDS011;53663;42.676;23.238;2023-05-27T09:52:47;9.52;;;3.80;;
66751;SDS011;53663;42.676;23.238;2023-05-27T09:55:14;4.80;;;3.30;;
66751;SDS011;53663;42.676;23.238;2023-05-27T09:57:41;8.38;;;4.18;;
66751;SDS011;53663;42.676;23.238;2023-05-27T10:00:08;9.45;;;4.13;;
66751;SDS011;53663;42.676;23.238;2023-05-27T10:02:46;8.15;;;3.80;;
66751;SDS011;53663;42.676;23.238;2023-05-27T10:05:12;6.35;;;4.03;;
66751;SDS011;53663;42.676;23.238;2023-05-27T10:07:40;8.15;;;4.15;;
66751;SDS011;53663;42.676;23.238;2023-05-27T10:10:14;8.45;;;4.63;;
66751;SDS011;53663;42.676;23.238;2023-05-27T10:12:42;6.90;;;3.50;;
66751;SDS011;53663;42.676;23.238;2023-05-27T10:15:09;6.45;;;3.40;;
66751;SDS011;53663;42.676;23.238;2023-05-27T10:17:51;9.55;;;3.70;;
66751;SDS011;53663;42.676;23.238;2023-05-27T10:25:48;7.68;;;4.10;;
66751;SDS011;53663;42.676;23.238;2023-05-27T10:33:45;7.93;;;3.70;;
66751;SDS011;53663;42.676;23.238;2023-05-27T10:36:13;5.55;;;3.83;;
66751;SDS011;53663;42.676;23.238;2023-05-27T10:38:56;6.15;;;3.67;;
66751;SDS011;53663;42.676;23.238;2023-05-27T10:41:40;6.50;;;3.67;;
66751;SDS011;53663;42.676;23.238;2023-05-27T10:44:07;10.63;;;3.97;;
66751;SDS011;53663;42.676;23.238;2023-05-27T10:49:25;12.98;;;7.30;;
66751;SDS011;53663;42.676;23.238;2023-05-27T10:51:52;5.35;;;3.85;;
66751;SDS011;53663;42.676;23.238;2023-05-27T10:54:18;6.25;;;3.83;;
66751;SDS011;53663;42.676;23.238;2023-05-27T10:56:50;8.93;;;4.50;;
66751;SDS011;53663;42.676;23.238;2023-05-27T10:59:20;8.57;;;4.00;;
66751;SDS011;53663;42.676;23.238;2023-05-27T11:01:47;6.68;;;3.90;;
66751;SDS011;53663;42.676;23.238;2023-05-27T11:04:17;9.70;;;3.60;;
66751;SDS011;53663;42.676;23.238;2023-05-27T11:06:49;5.55;;;3.47;;
66751;SDS011;53663;42.676;23.238;2023-05-27T11:09:22;5.45;;;3.45;;
66751;SDS011;53663;42.676;23.238;2023-05-27T11:11:47;6.60;;;3.72;;
66751;SDS011;53663;42.676;23.238;2023-05-27T11:14:13;6.97;;;3.90;;
66751;SDS011;53663;42.676;23.238;2023-05-27T11:16:38;5.40;;;3.58;;
66751;SDS011;53663;42.676;23.238;2023-05-27T11:19:04;6.32;;;3.58;;
66751;SDS011;53663;42.676;23.238;2023-05-27T11:21:29;9.50;;;3.90;;
66751;SDS011;53663;42.676;23.238;2023-05-27T11:23:54;6.88;;;4.03;;
66751;SDS011;53663;42.676;23.238;2023-05-27T11:26:24;5.20;;;3.80;;
66751;SDS011;53663;42.676;23.238;2023-05-27T11:28:51;7.90;;;3.63;;
66751;SDS011;53663;42.676;23.238;2023-05-27T11:31:17;6.22;;;3.70;;
66751;SDS011;53663;42.676;23.238;2023-05-27T11:33:45;5.72;;;3.70;;
66751;SDS011;53663;42.676;23.238;2023-05-27T11:36:12;6.82;;;4.28;;
66751;SDS011;53663;42.676;23.238;2023-05-27T11:38:58;10.75;;;4.38;;
66751;SDS011;53663;42.676;23.238;2023-05-27T11:41:25;7.90;;;3.65;;
66751;SDS011;53663;42.676;23.238;2023-05-27T11:43:55;6.35;;;3.38;;
66751;SDS011;53663;42.676;23.238;2023-05-27T11:46:24;7.53;;;4.00;;
66751;SDS011;53663;42.676;23.238;2023-05-27T11:49:09;8.07;;;5.57;;
66751;SDS011;53663;42.676;23.238;2023-05-27T11:51:49;5.78;;;3.95;;
66751;SDS011;53663;42.676;23.238;2023-05-27T11:54:18;8.50;;;3.88;;
66751;SDS011;53663;42.676;23.238;2023-05-27T11:59:10;7.53;;;3.65;;
66751;SDS011;53663;42.676;23.238;2023-05-27T12:01:36;5.78;;;3.70;;
66751;SDS011;53663;42.676;23.238;2023-05-27T12:04:02;8.98;;;3.42;;
66751;SDS011;53663;42.676;23.238;2023-05-27T12:06:28;7.10;;;3.72;;
66751;SDS011;53663;42.676;23.238;2023-05-27T12:08:54;6.72;;;4.05;;
66751;SDS011;53663;42.676;23.238;2023-05-27T12:11:19;6.78;;;3.95;;
66751;SDS011;53663;42.676;23.238;2023-05-27T12:13:45;7.05;;;4.10;;
66751;SDS011;53663;42.676;23.238;2023-05-27T12:16:10;6.00;;;3.90;;
66751;SDS011;53663;42.676;23.238;2023-05-27T12:18:36;5.28;;;3.80;;
66751;SDS011;53663;42.676;23.238;2023-05-27T12:21:02;4.85;;;3.75;;
66751;SDS011;53663;42.676;23.238;2023-05-27T12:23:28;9.55;;;3.95;;
66751;SDS011;53663;42.676;23.238;2023-05-27T12:25:53;7.40;;;3.88;;
66751;SDS011;53663;42.676;23.238;2023-05-27T12:28:19;5.78;;;3.63;;
66751;SDS011;53663;42.676;23.238;2023-05-27T12:30:44;9.50;;;3.47;;
66751;SDS011;53663;42.676;23.238;2023-05-27T12:33:11;3.95;;;3.17;;
66751;SDS011;53663;42.676;23.238;2023-05-27T12:35:36;5.25;;;3.30;;
66751;SDS011;53663;42.676;23.238;2023-05-27T12:38:02;6.05;;;4.18;;
66751;SDS011;53663;42.676;23.238;2023-05-27T12:40:27;14.70;;;4.03;;
66751;SDS011;53663;42.676;23.238;2023-05-27T12:42:53;7.75;;;4.43;;
66751;SDS011;53663;42.676;23.238;2023-05-27T12:45:19;7.03;;;3.88;;
66751;SDS011;53663;42.676;23.238;2023-05-27T12:47:48;5.72;;;4.03;;
66751;SDS011;53663;42.676;23.238;2023-05-27T12:50:14;9.00;;;4.28;;
66751;SDS011;53663;42.676;23.238;2023-05-27T12:52:40;7.70;;;3.40;;
66751;SDS011;53663;42.676;23.238;2023-05-27T12:55:11;6.10;;;3.40;;
66751;SDS011;53663;42.676;23.238;2023-05-27T12:57:42;5.18;;;3.80;;
66751;SDS011;53663;42.676;23.238;2023-05-27T13:00:11;7.32;;;3.75;;
66751;SDS011;53663;42.676;23.238;2023-05-27T13:02:37;6.25;;;4.03;;
66751;SDS011;53663;42.676;23.238;2023-05-27T13:05:04;6.82;;;4.00;;
66751;SDS011;53663;42.676;23.238;2023-05-27T13:07:31;6.43;;;3.83;;
66751;SDS011;53663;42.676;23.238;2023-05-27T13:10:00;7.35;;;3.97;;
66751;SDS011;53663;42.676;23.238;2023-05-27T13:12:27;9.45;;;4.00;;
66751;SDS011;53663;42.676;23.238;2023-05-27T13:14:54;8.48;;;3.72;;
66751;SDS011;53663;42.676;23.238;2023-05-27T13:17:19;7.82;;;4.03;;
66751;SDS011;53663;42.676;23.238;2023-05-27T13:19:45;9.65;;;3.95;;
66751;SDS011;53663;42.676;23.238;2023-05-27T13:22:10;8.88;;;3.70;;
66751;SDS011;53663;42.676;23.238;2023-05-27T13:24:38;4.25;;;3.47;;
66751;SDS011;53663;42.676;23.238;2023-05-27T13:27:03;5.20;;;3.30;;
66751;SDS011;53663;42.676;23.238;2023-05-27T13:29:29;7.63;;;3.55;;
66751;SDS011;53663;42.676;23.238;2023-05-27T13:31:54;5.72;;;3.80;;
66751;SDS011;53663;42.676;23.238;2023-05-27T13:34:20;6.07;;;3.35;;
66751;SDS011;53663;42.676;23.238;2023-05-27T13:36:46;6.35;;;3.67;;
66751;SDS011;53663;42.676;23.238;2023-05-27T13:39:12;9.93;;;4.35;;
66751;SDS011;53663;42.676;23.238;2023-05-27T13:41:38;5.70;;;3.22;;
66751;SDS011;53663;42.676;23.238;2023-05-27T13:44:04;8.27;;;3.90;;
66751;SDS011;53663;42.676;23.238;2023-05-27T13:46:29;5.72;;;3.55;;
66751;SDS011;53663;42.676;23.238;2023-05-27T13:48:55;4.97;;;3.70;;
66751;SDS011;53663;42.676;23.238;2023-05-27T13:51:20;7.97;;;3.58;;
66751;SDS011;53663;42.676;23.238;2023-05-27T13:53:47;6.38;;;3.60;;
66751;SDS011;53663;42.676;23.238;2023-05-27T13:56:13;5.00;;;3.50;;
66751;SDS011;53663;42.676;23.238;2023-05-27T13:58:39;9.95;;;3.72;;
66751;SDS011;53663;42.676;23.238;2023-05-27T14:01:05;8.27;;;4.07;;
66751;SDS011;53663;42.676;23.238;2023-05-27T14:03:30;8.10;;;3.92;;
66751;SDS011;53663;42.676;23.238;2023-05-27T14:05:56;6.80;;;4.25;;
66751;SDS011;53663;42.676;23.238;2023-05-27T14:08:21;6.65;;;3.85;;
66751;SDS011;53663;42.676;23.238;2023-05-27T14:10:47;9.15;;;4.95;;
66751;SDS011;53663;42.676;23.238;2023-05-27T14:13:12;9.68;;;4.32;;
66751;SDS011;53663;42.676;23.238;2023-05-27T14:15:38;8.18;;;4.10;;
66751;SDS011;53663;42.676;23.238;2023-05-27T14:18:04;7.38;;;3.65;;
66751;SDS011;53663;42.676;23.238;2023-05-27T14:20:30;6.80;;;3.88;;
66751;SDS011;53663;42.676;23.238;2023-05-27T14:22:56;6.57;;;3.55;;
66751;SDS011;53663;42.676;23.238;2023-05-27T14:25:25;5.88;;;3.42;;
66751;SDS011;53663;42.676;23.238;2023-05-27T14:27:50;6.80;;;3.45;;
66751;SDS011;53663;42.676;23.238;2023-05-27T14:30:16;6.20;;;3.95;;
66751;SDS011;53663;42.676;23.238;2023-05-27T14:32:41;8.27;;;3.22;;
66751;SDS011;53663;42.676;23.238;2023-05-27T14:35:07;7.22;;;3.70;;
66751;SDS011;53663;42.676;23.238;2023-05-27T14:37:33;7.30;;;3.40;;
66751;SDS011;53663;42.676;23.238;2023-05-27T14:39:59;8.02;;;3.95;;
66751;SDS011;53663;42.676;23.238;2023-05-27T14:42:24;7.55;;;3.60;;
66751;SDS011;53663;42.676;23.238;2023-05-27T14:44:50;4.28;;;3.28;;
66751;SDS011;53663;42.676;23.238;2023-05-27T14:47:15;6.60;;;3.58;;
66751;SDS011;53663;42.676;23.238;2023-05-27T14:49:41;5.40;;;3.80;;
66751;SDS011;53663;42.676;23.238;2023-05-27T14:52:06;8.00;;;3.88;;
66751;SDS011;53663;42.676;23.238;2023-05-27T14:54:32;6.50;;;3.50;;
66751;SDS011;53663;42.676;23.238;2023-05-27T14:56:57;5.75;;;3.60;;
66751;SDS011;53663;42.676;23.238;2023-05-27T14:59:23;6.45;;;3.22;;